createdAt,value
2019-04-26T00:01:23.024Z,16.57
2019-04-26T00:03:54.315Z,17.07
2019-04-26T00:06:25.165Z,17.57
2019-04-26T00:09:13.715Z,16.73
2019-04-26T00:12:09.827Z,16.57
2019-04-26T00:15:03.394Z,16.23
2019-04-26T00:17:38.047Z,16.37
2019-04-26T00:20:09.165Z,17.10
2019-04-26T00:22:39.733Z,17.40
2019-04-26T00:25:11.420Z,15.90
2019-04-26T00:27:42.077Z,15.00
2019-04-26T00:30:13.095Z,17.33
2019-04-26T00:32:43.611Z,16.23
2019-04-26T00:35:14.045Z,16.70
2019-04-26T00:37:44.643Z,17.33
2019-04-26T00:40:16.123Z,17.00
2019-04-26T00:42:47.269Z,17.33
2019-04-26T00:45:18.767Z,17.47
2019-04-26T00:47:51.321Z,17.27
2019-04-26T00:50:23.295Z,16.60
2019-04-26T00:52:55.013Z,17.10
2019-04-26T00:55:25.222Z,16.73
2019-04-26T00:57:56.073Z,17.90
2019-04-26T01:00:26.323Z,16.70
2019-04-26T01:02:57.694Z,17.43
2019-04-26T01:05:29.543Z,17.30
2019-04-26T01:07:59.863Z,17.00
2019-04-26T01:10:30.113Z,17.67
2019-04-26T01:13:00.543Z,16.83
2019-04-26T01:15:30.831Z,17.10
2019-04-26T01:18:01.208Z,17.40
2019-04-26T01:20:33.539Z,17.30
2019-04-26T01:23:07.012Z,16.57
2019-04-26T01:26:03.610Z,16.57
2019-04-26T01:28:42.958Z,17.10
2019-04-26T01:31:14.038Z,17.53
2019-04-26T01:33:44.821Z,16.50
2019-04-26T01:36:15.738Z,16.60
2019-04-26T01:38:49.864Z,17.43
2019-04-26T01:41:30.557Z,16.10
2019-04-26T01:44:14.940Z,16.60
2019-04-26T01:46:47.660Z,16.10
2019-04-26T01:49:21.320Z,16.23
2019-04-26T01:51:57.970Z,17.67
2019-04-26T01:54:33.534Z,16.47
2019-04-26T01:57:06.057Z,15.17
2019-04-26T01:59:40.586Z,16.87
2019-04-26T02:02:19.104Z,17.13
2019-04-26T02:04:51.110Z,17.20
2019-04-26T02:07:40.610Z,17.10
2019-04-26T02:10:13.009Z,16.23
2019-04-26T02:12:46.609Z,17.03
2019-04-26T02:15:19.648Z,16.70
2019-04-26T02:17:52.432Z,16.20
2019-04-26T02:21:27.975Z,16.33
2019-04-26T02:24:24.807Z,16.50
2019-04-26T02:26:56.876Z,16.27
2019-04-26T02:29:28.585Z,15.87
2019-04-26T02:32:02.857Z,17.40
2019-04-26T02:34:37.267Z,15.40
2019-04-26T02:37:10.058Z,16.37
2019-04-26T02:39:42.530Z,16.67
2019-04-26T02:42:22.369Z,16.13
2019-04-26T02:45:10.655Z,16.73
2019-04-26T02:48:02.639Z,16.57
2019-04-26T02:50:39.595Z,17.10
2019-04-26T02:53:31.550Z,16.27
2019-04-26T02:56:30.262Z,15.90
2019-04-26T02:59:37.729Z,16.27
2019-04-26T03:02:14.968Z,16.57
2019-04-26T03:04:49.051Z,16.27
2019-04-26T03:07:33.451Z,17.20
2019-04-26T03:10:04.975Z,17.10
2019-04-26T03:12:39.451Z,16.73
2019-04-26T03:15:33.127Z,15.93
2019-04-26T03:18:23.985Z,16.20
2019-04-26T03:21:00.103Z,18.30
2019-04-26T03:23:58.235Z,17.60
2019-04-26T03:26:35.155Z,16.70
2019-04-26T03:29:12.519Z,17.20
2019-04-26T03:32:05.191Z,16.73
2019-04-26T03:34:53.166Z,18.20
2019-04-26T03:37:37.565Z,17.80
2019-04-26T03:40:23.042Z,18.03
2019-04-26T03:43:38.127Z,18.47
2019-04-26T03:46:21.654Z,17.87
2019-04-26T03:49:09.812Z,17.47
2019-04-26T03:51:55.837Z,17.57
2019-04-26T03:54:29.043Z,17.03
2019-04-26T03:57:25.842Z,17.63
2019-04-26T04:00:32.310Z,18.40
2019-04-26T04:03:33.774Z,17.83
2019-04-26T04:06:08.149Z,17.40
2019-04-26T04:08:50.852Z,18.10
2019-04-26T04:11:25.536Z,17.33
2019-04-26T04:14:07.041Z,18.03
2019-04-26T04:17:10.093Z,17.67
2019-04-26T04:20:01.600Z,18.13
2019-04-26T04:22:39.103Z,18.03
2019-04-26T04:25:13.482Z,18.13
2019-04-26T04:27:56.370Z,18.13
2019-04-26T04:30:45.911Z,19.43
2019-04-26T04:33:35.079Z,17.67
2019-04-26T04:36:16.203Z,16.77
2019-04-26T04:39:21.963Z,17.70
2019-04-26T04:42:31.843Z,17.60
2019-04-26T04:45:31.422Z,18.03
2019-04-26T04:48:34.903Z,17.67
2019-04-26T04:51:52.045Z,17.37
2019-04-26T04:54:32.504Z,17.03
2019-04-26T04:57:18.074Z,17.90
2019-04-26T05:00:06.625Z,17.20
2019-04-26T05:03:03.614Z,17.90
2019-04-26T05:06:06.886Z,17.37
2019-04-26T05:09:10.060Z,16.60
2019-04-26T05:12:06.027Z,17.03
2019-04-26T05:15:08.391Z,17.40
2019-04-26T05:18:05.925Z,18.23
2019-04-26T05:21:02.246Z,17.27
2019-04-26T05:24:05.891Z,18.23
2019-04-26T05:27:32.584Z,17.03
2019-04-26T05:30:29.687Z,17.27
2019-04-26T05:33:28.174Z,15.97
2019-04-26T05:36:52.735Z,18.90
2019-04-26T05:39:47.786Z,17.60
2019-04-26T05:42:51.575Z,17.00
2019-04-26T05:46:29.934Z,15.90
2019-04-26T05:50:02.434Z,16.80
2019-04-26T05:53:02.515Z,16.30
2019-04-26T05:56:07.754Z,18.70
2019-04-26T05:59:00.185Z,16.37
2019-04-26T06:02:17.381Z,16.43
2019-04-26T06:05:26.311Z,16.37
2019-04-26T06:08:31.896Z,15.10
2019-04-26T06:11:10.990Z,16.83
2019-04-26T06:14:34.346Z,16.10
2019-04-26T06:17:46.890Z,16.87
2019-04-26T06:20:47.424Z,16.63
2019-04-26T06:23:43.933Z,17.00
2019-04-26T06:27:14.347Z,15.13
2019-04-26T06:29:55.222Z,14.80
2019-04-26T06:32:32.820Z,15.70
2019-04-26T06:35:24.672Z,14.23
2019-04-26T06:39:04.555Z,14.50
2019-04-26T06:42:07.416Z,15.10
2019-04-26T06:45:51.527Z,12.73
2019-04-26T06:48:54.617Z,12.43
2019-04-26T06:51:31.697Z,14.17
2019-04-26T06:54:38.554Z,13.62
2019-04-26T06:58:02.843Z,13.63
2019-04-26T07:00:47.542Z,13.93
2019-04-26T07:03:32.599Z,13.17
2019-04-26T07:06:03.104Z,12.73
2019-04-26T07:09:00.545Z,14.00
2019-04-26T07:12:11.699Z,12.87
2019-04-26T07:15:14.002Z,12.80
2019-04-26T07:18:16.530Z,13.83
2019-04-26T07:21:19.117Z,14.20
2019-04-26T07:24:26.866Z,13.13
2019-04-26T07:27:21.537Z,13.30
2019-04-26T07:30:25.103Z,12.83
2019-04-26T07:33:13.643Z,11.80
2019-04-26T07:36:12.031Z,12.63
2019-04-26T07:39:37.727Z,12.05
2019-04-26T07:42:44.134Z,12.55
2019-04-26T07:45:53.004Z,11.57
2019-04-26T07:49:25.923Z,11.45
2019-04-26T07:52:26.019Z,11.50
2019-04-26T07:55:29.594Z,11.03
2019-04-26T07:58:53.388Z,10.75
2019-04-26T08:02:07.269Z,11.68
2019-04-26T08:04:42.675Z,10.45
2019-04-26T08:07:22.964Z,10.93
2019-04-26T08:10:08.541Z,10.45
2019-04-26T08:12:42.129Z,11.43
2019-04-26T08:15:38.806Z,11.05
2019-04-26T08:18:34.471Z,10.53
2019-04-26T08:21:18.326Z,10.00
2019-04-26T08:24:02.988Z,10.95
2019-04-26T08:26:36.867Z,10.60
2019-04-26T08:29:10.544Z,9.88
2019-04-26T08:31:43.721Z,10.60
2019-04-26T08:34:21.180Z,9.48
2019-04-26T08:37:01.790Z,10.20
2019-04-26T08:39:45.009Z,9.78
2019-04-26T08:42:11.836Z,10.33
2019-04-26T08:45:10.127Z,9.68
2019-04-26T08:47:55.662Z,8.93
2019-04-26T08:50:32.254Z,9.55
2019-04-26T08:53:04.400Z,9.63
2019-04-26T08:55:36.981Z,10.08
2019-04-26T08:58:10.878Z,8.88
2019-04-26T09:01:15.435Z,9.65
2019-04-26T09:03:57.686Z,8.75
2019-04-26T09:06:37.386Z,8.80
2019-04-26T09:09:18.288Z,7.75
2019-04-26T09:11:59.423Z,9.43
2019-04-26T09:14:26.977Z,9.00
2019-04-26T09:16:57.318Z,8.88
2019-04-26T09:19:30.554Z,9.38
2019-04-26T09:22:22.423Z,8.45
2019-04-26T09:24:59.396Z,7.53
2019-04-26T09:27:45.790Z,7.85
2019-04-26T09:30:33.831Z,7.70
2019-04-26T09:33:08.410Z,8.10
2019-04-26T09:35:38.706Z,7.22
2019-04-26T09:38:09.113Z,7.47
2019-04-26T09:40:40.102Z,7.85
2019-04-26T09:43:27.502Z,7.80
2019-04-26T09:46:11.109Z,7.62
2019-04-26T09:48:53.947Z,7.17
2019-04-26T09:51:25.620Z,7.42
2019-04-26T09:53:57.133Z,7.47
2019-04-26T09:56:27.496Z,6.75
2019-04-26T09:59:01.480Z,7.00
2019-04-26T10:01:31.776Z,7.70
2019-04-26T10:04:02.054Z,6.97
2019-04-26T10:06:32.750Z,7.00
2019-04-26T10:09:03.340Z,6.58
2019-04-26T10:11:43.582Z,6.97
2019-04-26T10:14:21.064Z,6.60
2019-04-26T10:17:02.246Z,6.85
2019-04-26T10:19:41.466Z,6.40
2019-04-26T10:22:11.760Z,7.05
2019-04-26T10:24:42.097Z,6.47
2019-04-26T10:27:12.374Z,6.60
2019-04-26T10:29:42.714Z,6.50
2019-04-26T10:32:13.064Z,6.42
2019-04-26T10:34:47.377Z,6.03
2019-04-26T10:37:15.314Z,5.47
2019-04-26T10:39:45.512Z,5.37
2019-04-26T10:42:16.100Z,5.00
2019-04-26T10:44:46.366Z,4.97
2019-04-26T10:47:16.818Z,5.30
2019-04-26T10:49:49.215Z,4.80
2019-04-26T10:52:26.142Z,5.50
2019-04-26T10:55:08.580Z,4.65
2019-04-26T10:57:40.263Z,5.53
2019-04-26T11:00:18.965Z,5.20
2019-04-26T11:02:49.646Z,5.70
2019-04-26T11:05:20.614Z,5.47
2019-04-26T11:07:53.343Z,5.72
2019-04-26T11:10:24.417Z,5.25
2019-04-26T11:12:54.841Z,5.05
2019-04-26T11:15:29.123Z,5.60
2019-04-26T11:17:58.862Z,5.12
2019-04-26T11:20:29.475Z,5.33
2019-04-26T11:22:59.804Z,5.15
2019-04-26T11:25:30.130Z,5.10
2019-04-26T11:28:00.535Z,5.33
2019-04-26T11:30:30.778Z,5.30
2019-04-26T11:33:01.075Z,4.42
2019-04-26T11:35:33.208Z,4.80
2019-04-26T11:38:03.309Z,4.50
2019-04-26T11:40:33.691Z,4.67
2019-04-26T11:43:04.201Z,4.25
2019-04-26T11:45:34.525Z,4.60
2019-04-26T11:48:04.903Z,4.47
2019-04-26T11:50:35.159Z,4.05
2019-04-26T11:53:06.172Z,3.83
2019-04-26T11:55:37.729Z,4.17
2019-04-26T11:58:08.278Z,4.50
2019-04-26T12:00:46.043Z,3.83
2019-04-26T12:03:16.295Z,4.45
2019-04-26T12:05:53.347Z,3.67
2019-04-26T12:08:45.563Z,3.90
2019-04-26T12:11:18.532Z,3.95
2019-04-26T12:13:49.168Z,4.12
2019-04-26T12:16:20.499Z,5.03
2019-04-26T12:18:51.509Z,4.03
2019-04-26T12:21:21.676Z,4.10
2019-04-26T12:23:55.580Z,3.70
2019-04-26T12:26:24.263Z,3.90
2019-04-26T12:28:54.551Z,4.80
2019-04-26T12:31:24.936Z,3.90
2019-04-26T12:33:55.479Z,4.15
2019-04-26T12:36:25.759Z,4.05
2019-04-26T12:38:58.301Z,3.85
2019-04-26T12:41:39.767Z,4.33
2019-04-26T12:44:03.367Z,3.92
2019-04-26T12:46:50.910Z,4.53
2019-04-26T12:49:24.238Z,4.03
2019-04-26T12:51:53.456Z,4.60
2019-04-26T12:54:23.836Z,4.20
2019-04-26T12:56:54.213Z,3.30
2019-04-26T12:59:26.524Z,3.72
2019-04-26T13:02:05.469Z,3.62
2019-04-26T13:04:36.344Z,4.30
2019-04-26T13:07:22.826Z,3.62
2019-04-26T13:09:44.885Z,4.55
2019-04-26T13:12:32.811Z,4.70
2019-04-26T13:16:14.069Z,4.58
2019-04-26T13:18:45.281Z,4.58
2019-04-26T13:21:16.702Z,4.37
2019-04-26T13:23:48.242Z,4.37
2019-04-26T13:26:18.730Z,5.12
2019-04-26T13:28:52.612Z,5.00
2019-04-26T13:31:20.862Z,5.28
2019-04-26T13:33:52.483Z,4.67
2019-04-26T13:36:25.236Z,5.15
2019-04-26T13:38:54.736Z,5.28
2019-04-26T13:41:27.868Z,5.50
2019-04-26T13:44:00.750Z,4.40
2019-04-26T13:46:46.645Z,5.00
2019-04-26T13:49:40.082Z,4.75
2019-04-26T13:52:10.740Z,5.30
2019-04-26T13:54:41.230Z,5.45
2019-04-26T13:57:11.566Z,5.65
2019-04-26T13:59:42.080Z,4.97
2019-04-26T14:02:12.824Z,5.33
2019-04-26T14:04:43.174Z,5.28
2019-04-26T14:07:13.478Z,5.58
2019-04-26T14:09:44.312Z,5.75
2019-04-26T14:12:18.650Z,5.50
2019-04-26T14:14:47.476Z,5.72
2019-04-26T14:17:18.006Z,5.20
2019-04-26T14:19:49.477Z,5.72
2019-04-26T14:22:23.020Z,4.78
2019-04-26T14:25:06.846Z,5.45
2019-04-26T14:27:45.456Z,4.78
2019-04-26T14:30:16.774Z,5.15
2019-04-26T14:32:47.252Z,5.20
2019-04-26T14:35:17.653Z,5.22
2019-04-26T14:37:49.897Z,5.37
2019-04-26T14:40:20.153Z,5.12
2019-04-26T14:43:05.636Z,5.03
2019-04-26T14:45:24.270Z,4.78
2019-04-26T14:47:55.742Z,4.62
2019-04-26T14:50:28.154Z,5.47
2019-04-26T14:52:58.352Z,5.15
2019-04-26T14:55:30.129Z,4.95
2019-04-26T14:58:02.045Z,4.72
2019-04-26T15:00:34.542Z,5.25
2019-04-26T15:03:20.885Z,5.22
2019-04-26T15:06:02.863Z,5.47
2019-04-26T15:08:34.108Z,4.92
2019-04-26T15:11:04.862Z,5.30
2019-04-26T15:13:40.250Z,4.97
2019-04-26T15:16:10.211Z,5.03
2019-04-26T15:18:39.350Z,5.00
2019-04-26T15:21:10.071Z,5.60
2019-04-26T15:23:40.316Z,5.33
2019-04-26T15:26:10.589Z,5.05
2019-04-26T15:28:43.694Z,4.75
2019-04-26T15:31:13.082Z,5.15
2019-04-26T15:33:48.592Z,5.28
2019-04-26T15:36:15.395Z,4.87
2019-04-26T15:38:47.467Z,4.42
2019-04-26T15:41:30.290Z,5.15
2019-04-26T15:44:06.670Z,5.45
2019-04-26T15:47:14.120Z,6.10
2019-04-26T15:49:52.933Z,4.97
2019-04-26T15:52:23.391Z,5.40
2019-04-26T15:54:58.516Z,5.10
2019-04-26T15:57:30.877Z,5.67
2019-04-26T15:59:58.136Z,5.65
2019-04-26T16:02:29.811Z,5.47
2019-04-26T16:05:00.147Z,5.00
2019-04-26T16:07:34.237Z,4.70
2019-04-26T16:10:04.352Z,4.83
2019-04-26T16:12:34.872Z,5.35
2019-04-26T16:15:11.432Z,5.62
2019-04-26T16:17:40.244Z,4.58
2019-04-26T16:20:13.542Z,4.85
2019-04-26T16:22:45.089Z,4.72
2019-04-26T16:25:15.405Z,4.85
2019-04-26T16:27:45.651Z,4.80
2019-04-26T16:30:32.939Z,5.42
2019-04-26T16:33:33.587Z,5.42
2019-04-26T16:36:06.159Z,5.87
2019-04-26T16:38:37.166Z,5.87
2019-04-26T16:41:08.280Z,5.30
2019-04-26T16:46:12.537Z,5.37
2019-04-26T16:48:44.526Z,5.35
2019-04-26T16:51:14.983Z,5.40
2019-04-26T16:54:03.682Z,5.60
2019-04-26T16:56:25.930Z,6.00
2019-04-26T16:58:53.596Z,6.45
2019-04-26T17:00:46.563Z,5.33
2019-04-26T17:01:23.450Z,6.20
2019-04-26T17:03:54.102Z,5.50
2019-04-26T17:06:24.464Z,5.83
2019-04-26T17:09:01.039Z,5.92
2019-04-26T17:11:30.281Z,5.53
2019-04-26T17:14:04.354Z,5.25
2019-04-26T17:16:36.941Z,6.95
2019-04-26T17:19:03.726Z,5.30
2019-04-26T17:21:39.602Z,5.70
2019-04-26T17:24:31.912Z,5.92
2019-04-26T17:27:05.477Z,5.42
2019-04-26T17:29:37.173Z,5.30
2019-04-26T17:32:13.945Z,5.75
2019-04-26T17:34:43.282Z,5.25
2019-04-26T17:37:17.312Z,6.45
2019-04-26T17:39:47.538Z,5.75
2019-04-26T17:42:17.761Z,5.58
2019-04-26T17:44:48.086Z,6.10
2019-04-26T17:47:20.160Z,5.80
2019-04-26T17:49:52.471Z,5.50
2019-04-26T17:52:22.799Z,6.15
2019-04-26T17:54:53.109Z,6.85
2019-04-26T17:57:33.527Z,5.97
2019-04-26T18:00:06.642Z,6.78
2019-04-26T18:02:41.289Z,6.42
2019-04-26T18:05:03.280Z,8.80
2019-04-26T18:07:40.624Z,9.98
2019-04-26T18:10:06.729Z,12.85
2019-04-26T18:12:40.773Z,7.15
2019-04-26T18:15:12.539Z,8.30
2019-04-26T18:18:09.768Z,8.03
2019-04-26T18:21:05.674Z,9.68
2019-04-26T18:23:36.354Z,9.98
2019-04-26T18:26:06.748Z,8.88
2019-04-26T18:28:37.440Z,8.95
2019-04-26T18:31:09.842Z,8.35
2019-04-26T18:33:40.280Z,7.85
2019-04-26T18:36:10.855Z,8.10
2019-04-26T18:38:43.186Z,7.10
2019-04-26T18:41:13.652Z,7.75
2019-04-26T18:43:45.117Z,7.45
2019-04-26T18:46:20.638Z,7.80
2019-04-26T18:48:50.990Z,7.55
2019-04-26T18:51:21.312Z,7.45
2019-04-26T18:54:19.837Z,6.58
2019-04-26T18:56:55.471Z,7.28
2019-04-26T18:59:27.984Z,7.03
2019-04-26T19:01:58.435Z,7.33
2019-04-26T19:04:29.611Z,7.17
2019-04-26T19:06:59.959Z,6.95
2019-04-26T19:09:34.047Z,6.85
2019-04-26T19:12:04.344Z,6.67
2019-04-26T19:15:02.914Z,7.20
2019-04-26T19:17:53.242Z,7.83
2019-04-26T19:20:37.015Z,6.62
2019-04-26T19:23:08.917Z,7.15
2019-04-26T19:25:41.207Z,7.72
2019-04-26T19:28:12.095Z,8.00
2019-04-26T19:30:49.514Z,8.03
2019-04-26T19:33:16.740Z,7.20
2019-04-26T19:35:47.665Z,7.87
2019-04-26T19:38:20.967Z,8.30
2019-04-26T19:40:52.740Z,7.45
2019-04-26T19:43:32.444Z,8.25
2019-04-26T19:46:17.041Z,7.85
2019-04-26T19:49:03.899Z,7.20
2019-04-26T19:51:52.148Z,8.50
2019-04-26T19:54:35.462Z,8.08
2019-04-26T19:57:05.025Z,8.28
2019-04-26T19:59:35.340Z,8.03
2019-04-26T20:02:06.112Z,7.80
2019-04-26T20:04:36.376Z,7.65
2019-04-26T20:07:06.671Z,8.53
2019-04-26T20:09:38.188Z,9.48
2019-04-26T20:12:08.946Z,8.57
2019-04-26T20:14:47.154Z,8.73
2019-04-26T20:17:13.161Z,8.27
2019-04-26T20:19:43.501Z,8.17
2019-04-26T20:22:15.531Z,8.28
2019-04-26T20:24:48.701Z,9.95
2019-04-26T20:27:20.810Z,9.60
2019-04-26T20:29:51.636Z,9.25
2019-04-26T20:32:52.456Z,9.30
2019-04-26T20:35:26.951Z,8.60
2019-04-26T20:37:56.277Z,9.55
2019-04-26T20:40:27.533Z,8.35
2019-04-26T20:43:03.279Z,8.70
2019-04-26T20:45:39.726Z,8.40
2019-04-26T20:48:02.844Z,9.03
2019-04-26T20:50:36.708Z,9.18
2019-04-26T20:53:05.383Z,9.63
2019-04-26T20:55:35.778Z,9.43
2019-04-26T20:58:08.642Z,9.75
2019-04-26T21:00:38.153Z,10.05
2019-04-26T21:03:21.025Z,10.03
2019-04-26T21:05:46.047Z,9.73
2019-04-26T21:08:13.841Z,10.03
2019-04-26T21:10:44.156Z,9.40
2019-04-26T21:13:14.483Z,11.50
2019-04-26T21:15:56.029Z,11.30
2019-04-26T21:18:16.699Z,10.55
2019-04-26T21:20:46.988Z,11.07
2019-04-26T21:23:17.315Z,11.65
2019-04-26T21:25:57.656Z,11.63
2019-04-26T21:28:38.099Z,10.40
2019-04-26T21:31:29.660Z,12.82
2019-04-26T21:34:03.783Z,12.10
2019-04-26T21:36:46.049Z,11.35
2019-04-26T21:39:21.931Z,11.37
2019-04-26T21:41:55.022Z,11.12
2019-04-26T21:44:25.343Z,12.20
2019-04-26T21:46:58.587Z,10.70
2019-04-26T21:49:27.604Z,11.48
2019-04-26T21:51:58.219Z,11.53
2019-04-26T21:54:28.594Z,10.48
2019-04-26T21:56:58.862Z,10.75
2019-04-26T21:59:29.158Z,11.05
2019-04-26T22:01:59.746Z,10.88
2019-04-26T22:04:34.173Z,11.73
2019-04-26T22:07:06.352Z,11.73
2019-04-26T22:09:43.103Z,11.37
2019-04-26T22:12:15.413Z,11.63
2019-04-26T22:14:50.648Z,12.37
2019-04-26T22:17:40.332Z,11.78
2019-04-26T22:20:31.227Z,12.53
2019-04-26T22:23:26.981Z,12.10
2019-04-26T22:26:00.221Z,11.10
2019-04-26T22:28:31.348Z,12.28
2019-04-26T22:31:04.711Z,13.00
2019-04-26T22:33:34.227Z,12.10
2019-04-26T22:36:05.422Z,12.37
2019-04-26T22:38:35.670Z,12.93
2019-04-26T22:41:05.995Z,13.67
2019-04-26T22:44:10.297Z,12.97
2019-04-26T22:46:53.879Z,13.17
2019-04-26T22:49:24.273Z,12.67
2019-04-26T22:51:54.542Z,12.70
2019-04-26T22:54:24.977Z,13.50
2019-04-26T22:56:55.518Z,11.97
2019-04-26T22:59:25.834Z,13.03
2019-04-26T23:01:56.203Z,13.03
2019-04-26T23:04:26.688Z,13.67
2019-04-26T23:06:57.019Z,14.30
2019-04-26T23:09:27.385Z,12.67
2019-04-26T23:12:08.103Z,12.93
2019-04-26T23:15:03.459Z,13.22
2019-04-26T23:18:03.599Z,12.23
2019-04-26T23:20:39.668Z,13.03
2019-04-26T23:23:10.141Z,13.17
2019-04-26T23:25:40.375Z,13.70
2019-04-26T23:28:11.285Z,13.70
2019-04-26T23:30:42.487Z,13.33
2019-04-26T23:33:15.156Z,12.93
2019-04-26T23:35:47.522Z,11.93
2019-04-26T23:38:17.715Z,12.27
2019-04-26T23:40:48.029Z,13.00
2019-04-26T23:43:24.110Z,12.83
2019-04-26T23:45:50.256Z,13.20
2019-04-26T23:48:20.548Z,12.33
2019-04-26T23:50:53.724Z,11.77
2019-04-26T23:53:24.129Z,11.70
2019-04-26T23:55:55.525Z,12.13
2019-04-26T23:58:26.032Z,12.63
